sensor_id;sensor_type;location;lat;lon;timestamp;P1;durP1;ratioP1;P2;durP2;ratioP2
81036;SDS011;70521;47.468;19.306;2024-03-23T00:52:21;29.23;;;26.60;;
81036;SDS011;70521;47.468;19.306;2024-03-23T00:55:22;29.85;;;26.95;;
81036;SDS011;70521;47.468;19.306;2024-03-23T00:58:23;29.80;;;26.90;;
81036;SDS011;70521;47.468;19.306;2024-03-23T01:01:24;33.40;;;30.60;;
81036;SDS011;70521;47.468;19.306;2024-03-23T01:04:25;30.27;;;27.55;;
81036;SDS011;70521;47.468;19.306;2024-03-23T01:07:26;28.92;;;26.02;;
81036;SDS011;70521;47.468;19.306;2024-03-23T01:10:27;30.20;;;27.20;;
81036;SDS011;70521;47.468;19.306;2024-03-23T01:13:28;33.78;;;30.65;;
81036;SDS011;70521;47.468;19.306;2024-03-23T01:16:29;33.13;;;29.83;;
81036;SDS011;70521;47.468;19.306;2024-03-23T01:19:30;44.10;;;40.80;;
81036;SDS011;70521;47.468;19.306;2024-03-23T01:22:31;29.83;;;27.02;;
81036;SDS011;70521;47.468;19.306;2024-03-23T01:25:32;29.25;;;26.55;;
81036;SDS011;70521;47.468;19.306;2024-03-23T01:28:32;29.20;;;26.60;;
81036;SDS011;70521;47.468;19.306;2024-03-23T01:31:33;29.55;;;26.95;;
81036;SDS011;70521;47.468;19.306;2024-03-23T01:34:34;30.35;;;27.33;;
81036;SDS011;70521;47.468;19.306;2024-03-23T01:37:35;29.08;;;26.02;;
81036;SDS011;70521;47.468;19.306;2024-03-23T01:40:36;30.98;;;28.15;;
81036;SDS011;70521;47.468;19.306;2024-03-23T01:43:37;28.92;;;26.25;;
81036;SDS011;70521;47.468;19.306;2024-03-23T01:46:38;25.40;;;22.77;;
81036;SDS011;70521;47.468;19.306;2024-03-23T01:49:39;26.30;;;23.85;;
81036;SDS011;70521;47.468;19.306;2024-03-23T01:52:40;35.25;;;32.45;;
81036;SDS011;70521;47.468;19.306;2024-03-23T01:55:41;31.38;;;28.77;;
81036;SDS011;70521;47.468;19.306;2024-03-23T01:58:42;31.40;;;27.15;;
81036;SDS011;70521;47.468;19.306;2024-03-23T02:01:43;30.05;;;27.30;;
81036;SDS011;70521;47.468;19.306;2024-03-23T02:04:44;25.30;;;22.90;;
81036;SDS011;70521;47.468;19.306;2024-03-23T02:07:44;28.90;;;26.23;;
81036;SDS011;70521;47.468;19.306;2024-03-23T02:10:45;29.52;;;26.73;;
81036;SDS011;70521;47.468;19.306;2024-03-23T02:13:46;33.95;;;31.27;;
81036;SDS011;70521;47.468;19.306;2024-03-23T02:16:47;27.27;;;24.92;;
81036;SDS011;70521;47.468;19.306;2024-03-23T02:19:48;27.92;;;25.63;;
81036;SDS011;70521;47.468;19.306;2024-03-23T02:22:53;24.85;;;22.55;;
81036;SDS011;70521;47.468;19.306;2024-03-23T02:25:54;27.77;;;25.38;;
81036;SDS011;70521;47.468;19.306;2024-03-23T02:28:54;28.05;;;25.38;;
81036;SDS011;70521;47.468;19.306;2024-03-23T02:31:55;31.30;;;28.30;;
81036;SDS011;70521;47.468;19.306;2024-03-23T02:34:56;23.17;;;21.05;;
81036;SDS011;70521;47.468;19.306;2024-03-23T02:37:57;29.27;;;26.98;;
81036;SDS011;70521;47.468;19.306;2024-03-23T02:41:04;35.25;;;32.72;;
81036;SDS011;70521;47.468;19.306;2024-03-23T02:44:06;24.98;;;22.55;;
81036;SDS011;70521;47.468;19.306;2024-03-23T02:47:07;24.83;;;22.33;;
81036;SDS011;70521;47.468;19.306;2024-03-23T02:50:08;32.97;;;30.27;;
81036;SDS011;70521;47.468;19.306;2024-03-23T02:53:10;24.98;;;22.73;;
81036;SDS011;70521;47.468;19.306;2024-03-23T02:56:10;28.42;;;25.92;;
81036;SDS011;70521;47.468;19.306;2024-03-23T02:59:16;24.90;;;22.52;;
81036;SDS011;70521;47.468;19.306;2024-03-23T03:02:17;28.20;;;25.73;;
81036;SDS011;70521;47.468;19.306;2024-03-23T03:05:18;25.70;;;23.08;;
81036;SDS011;70521;47.468;19.306;2024-03-23T03:08:19;25.27;;;22.88;;
81036;SDS011;70521;47.468;19.306;2024-03-23T03:11:20;30.20;;;28.00;;
81036;SDS011;70521;47.468;19.306;2024-03-23T03:14:21;27.95;;;25.50;;
81036;SDS011;70521;47.468;19.306;2024-03-23T03:17:22;30.38;;;27.73;;
81036;SDS011;70521;47.468;19.306;2024-03-23T03:20:24;27.00;;;24.35;;
81036;SDS011;70521;47.468;19.306;2024-03-23T03:23:25;25.00;;;22.42;;
81036;SDS011;70521;47.468;19.306;2024-03-23T03:26:26;30.45;;;28.00;;
81036;SDS011;70521;47.468;19.306;2024-03-23T03:29:27;22.85;;;21.08;;
81036;SDS011;70521;47.468;19.306;2024-03-23T03:32:34;27.63;;;25.23;;
81036;SDS011;70521;47.468;19.306;2024-03-23T03:35:35;27.48;;;24.65;;
81036;SDS011;70521;47.468;19.306;2024-03-23T03:38:38;25.00;;;22.98;;
81036;SDS011;70521;47.468;19.306;2024-03-23T03:41:39;26.25;;;23.88;;
81036;SDS011;70521;47.468;19.306;2024-03-23T03:44:40;28.15;;;25.90;;
81036;SDS011;70521;47.468;19.306;2024-03-23T03:47:41;25.17;;;22.83;;
81036;SDS011;70521;47.468;19.306;2024-03-23T03:50:42;24.95;;;22.85;;
81036;SDS011;70521;47.468;19.306;2024-03-23T03:53:42;27.77;;;25.15;;
81036;SDS011;70521;47.468;19.306;2024-03-23T03:56:43;24.33;;;22.17;;
81036;SDS011;70521;47.468;19.306;2024-03-23T03:59:44;23.40;;;20.45;;
81036;SDS011;70521;47.468;19.306;2024-03-23T04:02:45;25.65;;;23.25;;
81036;SDS011;70521;47.468;19.306;2024-03-23T04:05:53;32.42;;;29.40;;
81036;SDS011;70521;47.468;19.306;2024-03-23T04:08:54;25.48;;;23.17;;
81036;SDS011;70521;47.468;19.306;2024-03-23T04:11:55;26.90;;;24.65;;
81036;SDS011;70521;47.468;19.306;2024-03-23T04:14:56;25.85;;;23.77;;
81036;SDS011;70521;47.468;19.306;2024-03-23T04:17:57;21.10;;;19.23;;
81036;SDS011;70521;47.468;19.306;2024-03-23T04:20:58;27.40;;;25.00;;
81036;SDS011;70521;47.468;19.306;2024-03-23T04:23:59;23.83;;;21.63;;
81036;SDS011;70521;47.468;19.306;2024-03-23T04:27:00;23.40;;;21.08;;
81036;SDS011;70521;47.468;19.306;2024-03-23T04:30:01;28.58;;;26.10;;
81036;SDS011;70521;47.468;19.306;2024-03-23T04:33:04;31.23;;;28.58;;
81036;SDS011;70521;47.468;19.306;2024-03-23T04:36:05;26.42;;;24.25;;
81036;SDS011;70521;47.468;19.306;2024-03-23T04:39:07;33.75;;;31.35;;
81036;SDS011;70521;47.468;19.306;2024-03-23T04:42:09;25.25;;;23.25;;
81036;SDS011;70521;47.468;19.306;2024-03-23T04:45:10;25.85;;;23.40;;
81036;SDS011;70521;47.468;19.306;2024-03-23T04:48:11;30.02;;;27.45;;
81036;SDS011;70521;47.468;19.306;2024-03-23T04:51:25;25.65;;;23.23;;
81036;SDS011;70521;47.468;19.306;2024-03-23T04:54:26;24.80;;;22.90;;
81036;SDS011;70521;47.468;19.306;2024-03-23T04:57:27;28.00;;;25.35;;
81036;SDS011;70521;47.468;19.306;2024-03-23T05:00:28;28.50;;;25.67;;
81036;SDS011;70521;47.468;19.306;2024-03-23T05:03:29;26.92;;;24.33;;
81036;SDS011;70521;47.468;19.306;2024-03-23T05:06:30;24.52;;;22.30;;
81036;SDS011;70521;47.468;19.306;2024-03-23T05:09:31;42.40;;;39.60;;
81036;SDS011;70521;47.468;19.306;2024-03-23T05:12:33;19.50;;;17.50;;
81036;SDS011;70521;47.468;19.306;2024-03-23T05:15:34;21.73;;;19.55;;
81036;SDS011;70521;47.468;19.306;2024-03-23T05:18:35;28.48;;;26.00;;
81036;SDS011;70521;47.468;19.306;2024-03-23T05:21:36;27.02;;;24.73;;
81036;SDS011;70521;47.468;19.306;2024-03-23T05:24:37;29.98;;;27.40;;
81036;SDS011;70521;47.468;19.306;2024-03-23T05:27:38;20.55;;;18.75;;
81036;SDS011;70521;47.468;19.306;2024-03-23T05:30:39;21.00;;;18.92;;
81036;SDS011;70521;47.468;19.306;2024-03-23T05:33:40;25.20;;;22.52;;
81036;SDS011;70521;47.468;19.306;2024-03-23T05:36:43;27.75;;;25.02;;
81036;SDS011;70521;47.468;19.306;2024-03-23T05:39:44;26.63;;;23.38;;
81036;SDS011;70521;47.468;19.306;2024-03-23T05:42:45;26.08;;;23.48;;
81036;SDS011;70521;47.468;19.306;2024-03-23T05:45:45;25.80;;;23.20;;
81036;SDS011;70521;47.468;19.306;2024-03-23T05:48:46;23.50;;;21.13;;
81036;SDS011;70521;47.468;19.306;2024-03-23T05:51:47;29.05;;;26.02;;
81036;SDS011;70521;47.468;19.306;2024-03-23T05:54:48;29.25;;;26.55;;
81036;SDS011;70521;47.468;19.306;2024-03-23T05:57:49;25.48;;;22.92;;
81036;SDS011;70521;47.468;19.306;2024-03-23T06:00:56;21.98;;;19.73;;
81036;SDS011;70521;47.468;19.306;2024-03-23T06:03:57;36.08;;;26.45;;
81036;SDS011;70521;47.468;19.306;2024-03-23T06:06:58;27.17;;;24.63;;
81036;SDS011;70521;47.468;19.306;2024-03-23T06:09:59;26.40;;;23.85;;
81036;SDS011;70521;47.468;19.306;2024-03-23T06:13:00;25.55;;;22.85;;
81036;SDS011;70521;47.468;19.306;2024-03-23T06:16:01;29.25;;;26.52;;
81036;SDS011;70521;47.468;19.306;2024-03-23T06:19:02;24.55;;;22.23;;
81036;SDS011;70521;47.468;19.306;2024-03-23T06:22:05;26.92;;;24.38;;
81036;SDS011;70521;47.468;19.306;2024-03-23T06:25:07;24.95;;;22.30;;
81036;SDS011;70521;47.468;19.306;2024-03-23T06:28:10;27.42;;;24.85;;
81036;SDS011;70521;47.468;19.306;2024-03-23T06:31:11;25.55;;;22.92;;
81036;SDS011;70521;47.468;19.306;2024-03-23T06:34:12;24.02;;;21.75;;
81036;SDS011;70521;47.468;19.306;2024-03-23T06:37:13;25.17;;;22.98;;
81036;SDS011;70521;47.468;19.306;2024-03-23T06:40:14;23.33;;;21.02;;
81036;SDS011;70521;47.468;19.306;2024-03-23T06:43:15;18.70;;;16.65;;
81036;SDS011;70521;47.468;19.306;2024-03-23T06:46:16;28.77;;;26.30;;
81036;SDS011;70521;47.468;19.306;2024-03-23T06:49:17;27.27;;;24.73;;
81036;SDS011;70521;47.468;19.306;2024-03-23T06:52:18;24.52;;;21.98;;
81036;SDS011;70521;47.468;19.306;2024-03-23T06:55:19;26.08;;;23.50;;
81036;SDS011;70521;47.468;19.306;2024-03-23T06:58:20;24.75;;;22.35;;
81036;SDS011;70521;47.468;19.306;2024-03-23T07:01:21;22.73;;;20.50;;
81036;SDS011;70521;47.468;19.306;2024-03-23T07:04:22;30.67;;;26.77;;
81036;SDS011;70521;47.468;19.306;2024-03-23T07:07:23;28.15;;;25.20;;
81036;SDS011;70521;47.468;19.306;2024-03-23T07:10:24;39.40;;;34.53;;
81036;SDS011;70521;47.468;19.306;2024-03-23T07:13:25;32.17;;;27.65;;
81036;SDS011;70521;47.468;19.306;2024-03-23T07:16:29;43.45;;;34.25;;
81036;SDS011;70521;47.468;19.306;2024-03-23T07:19:30;35.65;;;32.13;;
81036;SDS011;70521;47.468;19.306;2024-03-23T07:22:31;24.92;;;22.38;;
81036;SDS011;70521;47.468;19.306;2024-03-23T07:25:32;25.65;;;22.92;;
81036;SDS011;70521;47.468;19.306;2024-03-23T07:28:33;34.33;;;30.85;;
81036;SDS011;70521;47.468;19.306;2024-03-23T07:31:35;24.35;;;20.17;;
81036;SDS011;70521;47.468;19.306;2024-03-23T07:34:36;22.75;;;20.65;;
81036;SDS011;70521;47.468;19.306;2024-03-23T07:37:37;18.02;;;15.90;;
81036;SDS011;70521;47.468;19.306;2024-03-23T07:40:38;25.67;;;23.38;;
81036;SDS011;70521;47.468;19.306;2024-03-23T07:43:39;24.02;;;21.42;;
81036;SDS011;70521;47.468;19.306;2024-03-23T07:46:41;22.20;;;19.90;;
81036;SDS011;70521;47.468;19.306;2024-03-23T07:49:42;20.40;;;18.33;;
81036;SDS011;70521;47.468;19.306;2024-03-23T07:52:42;20.77;;;18.85;;
81036;SDS011;70521;47.468;19.306;2024-03-23T07:55:51;20.58;;;18.70;;
81036;SDS011;70521;47.468;19.306;2024-03-23T07:58:52;20.38;;;18.48;;
81036;SDS011;70521;47.468;19.306;2024-03-23T08:01:53;20.55;;;18.65;;
81036;SDS011;70521;47.468;19.306;2024-03-23T08:04:54;20.83;;;18.67;;
81036;SDS011;70521;47.468;19.306;2024-03-23T08:07:55;19.35;;;17.38;;
81036;SDS011;70521;47.468;19.306;2024-03-23T08:10:56;19.40;;;17.50;;
81036;SDS011;70521;47.468;19.306;2024-03-23T08:13:57;20.20;;;18.33;;
81036;SDS011;70521;47.468;19.306;2024-03-23T08:16:58;19.02;;;17.42;;
81036;SDS011;70521;47.468;19.306;2024-03-23T08:19:59;16.63;;;15.13;;
81036;SDS011;70521;47.468;19.306;2024-03-23T08:23:00;15.48;;;14.18;;
81036;SDS011;70521;47.468;19.306;2024-03-23T08:26:02;15.68;;;14.18;;
81036;SDS011;70521;47.468;19.306;2024-03-23T08:29:03;14.02;;;11.95;;
81036;SDS011;70521;47.468;19.306;2024-03-23T08:32:04;14.45;;;13.05;;
81036;SDS011;70521;47.468;19.306;2024-03-23T08:35:05;13.30;;;11.55;;
81036;SDS011;70521;47.468;19.306;2024-03-23T08:38:06;14.27;;;12.73;;
81036;SDS011;70521;47.468;19.306;2024-03-23T08:41:08;13.60;;;12.40;;
81036;SDS011;70521;47.468;19.306;2024-03-23T08:44:09;13.57;;;12.13;;
81036;SDS011;70521;47.468;19.306;2024-03-23T08:47:10;11.57;;;10.48;;
81036;SDS011;70521;47.468;19.306;2024-03-23T08:50:11;12.98;;;10.38;;
81036;SDS011;70521;47.468;19.306;2024-03-23T08:53:12;12.73;;;11.52;;
81036;SDS011;70521;47.468;19.306;2024-03-23T08:56:13;13.70;;;12.45;;
81036;SDS011;70521;47.468;19.306;2024-03-23T08:59:14;12.95;;;11.65;;
81036;SDS011;70521;47.468;19.306;2024-03-23T09:02:15;14.15;;;12.75;;
81036;SDS011;70521;47.468;19.306;2024-03-23T09:05:16;14.30;;;12.80;;
81036;SDS011;70521;47.468;19.306;2024-03-23T09:08:17;13.07;;;11.85;;
81036;SDS011;70521;47.468;19.306;2024-03-23T09:11:18;14.63;;;13.32;;
81036;SDS011;70521;47.468;19.306;2024-03-23T09:14:19;15.90;;;14.32;;
81036;SDS011;70521;47.468;19.306;2024-03-23T09:17:20;14.48;;;12.98;;
81036;SDS011;70521;47.468;19.306;2024-03-23T09:20:21;15.82;;;14.15;;
81036;SDS011;70521;47.468;19.306;2024-03-23T09:23:22;14.55;;;13.05;;
81036;SDS011;70521;47.468;19.306;2024-03-23T09:26:23;12.60;;;11.40;;
81036;SDS011;70521;47.468;19.306;2024-03-23T09:29:24;13.77;;;12.18;;
81036;SDS011;70521;47.468;19.306;2024-03-23T09:32:25;12.55;;;11.45;;
81036;SDS011;70521;47.468;19.306;2024-03-23T09:35:26;10.43;;;9.43;;
81036;SDS011;70521;47.468;19.306;2024-03-23T09:38:27;10.65;;;9.52;;
81036;SDS011;70521;47.468;19.306;2024-03-23T09:41:28;10.48;;;9.48;;
81036;SDS011;70521;47.468;19.306;2024-03-23T09:44:28;10.65;;;9.05;;
81036;SDS011;70521;47.468;19.306;2024-03-23T09:47:30;8.85;;;7.82;;
81036;SDS011;70521;47.468;19.306;2024-03-23T09:50:30;11.35;;;9.93;;
81036;SDS011;70521;47.468;19.306;2024-03-23T09:53:31;9.52;;;8.50;;
81036;SDS011;70521;47.468;19.306;2024-03-23T09:56:33;9.48;;;8.20;;
81036;SDS011;70521;47.468;19.306;2024-03-23T09:59:34;8.88;;;8.02;;
81036;SDS011;70521;47.468;19.306;2024-03-23T10:02:35;8.13;;;7.25;;
81036;SDS011;70521;47.468;19.306;2024-03-23T10:05:36;8.77;;;6.43;;
81036;SDS011;70521;47.468;19.306;2024-03-23T10:08:37;6.50;;;5.90;;
81036;SDS011;70521;47.468;19.306;2024-03-23T10:11:38;7.05;;;6.35;;
81036;SDS011;70521;47.468;19.306;2024-03-23T10:14:39;6.32;;;5.82;;
81036;SDS011;70521;47.468;19.306;2024-03-23T10:17:40;6.63;;;6.03;;
81036;SDS011;70521;47.468;19.306;2024-03-23T10:20:41;6.95;;;5.63;;
81036;SDS011;70521;47.468;19.306;2024-03-23T10:23:42;7.72;;;6.45;;
81036;SDS011;70521;47.468;19.306;2024-03-23T10:26:44;6.50;;;5.72;;
81036;SDS011;70521;47.468;19.306;2024-03-23T10:29:56;5.80;;;5.20;;
81036;SDS011;70521;47.468;19.306;2024-03-23T10:36:08;6.90;;;5.55;;
81036;SDS011;70521;47.468;19.306;2024-03-23T10:39:09;5.95;;;5.45;;
81036;SDS011;70521;47.468;19.306;2024-03-23T10:42:11;7.68;;;6.45;;
81036;SDS011;70521;47.468;19.306;2024-03-23T10:45:11;6.97;;;6.22;;
81036;SDS011;70521;47.468;19.306;2024-03-23T10:48:12;7.20;;;6.30;;
81036;SDS011;70521;47.468;19.306;2024-03-23T10:51:13;7.07;;;6.47;;
81036;SDS011;70521;47.468;19.306;2024-03-23T10:54:15;6.55;;;6.00;;
81036;SDS011;70521;47.468;19.306;2024-03-23T10:57:27;5.30;;;4.40;;
81036;SDS011;70521;47.468;19.306;2024-03-23T11:00:30;6.35;;;5.75;;
81036;SDS011;70521;47.468;19.306;2024-03-23T11:03:35;6.53;;;5.90;;
81036;SDS011;70521;47.468;19.306;2024-03-23T11:06:39;5.40;;;4.90;;
81036;SDS011;70521;47.468;19.306;2024-03-23T11:09:41;5.05;;;4.65;;
81036;SDS011;70521;47.468;19.306;2024-03-23T11:12:45;5.38;;;4.85;;
81036;SDS011;70521;47.468;19.306;2024-03-23T11:15:46;8.02;;;7.30;;
81036;SDS011;70521;47.468;19.306;2024-03-23T11:18:47;18.45;;;10.82;;
81036;SDS011;70521;47.468;19.306;2024-03-23T11:21:51;8.90;;;8.02;;
81036;SDS011;70521;47.468;19.306;2024-03-23T11:24:52;5.57;;;5.07;;
81036;SDS011;70521;47.468;19.306;2024-03-23T11:27:54;13.52;;;12.13;;
81036;SDS011;70521;47.468;19.306;2024-03-23T11:30:55;12.32;;;8.18;;
81036;SDS011;70521;47.468;19.306;2024-03-23T11:34:03;6.97;;;6.20;;
81036;SDS011;70521;47.468;19.306;2024-03-23T11:37:04;6.57;;;5.57;;
81036;SDS011;70521;47.468;19.306;2024-03-23T11:40:18;5.55;;;5.15;;
81036;SDS011;70521;47.468;19.306;2024-03-23T11:43:20;5.38;;;4.80;;
81036;SDS011;70521;47.468;19.306;2024-03-23T11:46:22;6.25;;;5.75;;
81036;SDS011;70521;47.468;19.306;2024-03-23T11:49:26;4.95;;;4.55;;
81036;SDS011;70521;47.468;19.306;2024-03-23T11:52:27;4.22;;;3.80;;
81036;SDS011;70521;47.468;19.306;2024-03-23T11:55:28;5.18;;;4.68;;
81036;SDS011;70521;47.468;19.306;2024-03-23T11:58:29;4.97;;;4.57;;
81036;SDS011;70521;47.468;19.306;2024-03-23T12:01:30;4.70;;;3.92;;
81036;SDS011;70521;47.468;19.306;2024-03-23T12:04:31;4.75;;;4.30;;
81036;SDS011;70521;47.468;19.306;2024-03-23T12:07:32;5.68;;;4.90;;
81036;SDS011;70521;47.468;19.306;2024-03-23T12:23:45;4.47;;;4.05;;
81036;SDS011;70521;47.468;19.306;2024-03-23T12:26:47;3.95;;;3.60;;
81036;SDS011;70521;47.468;19.306;2024-03-23T12:29:50;4.65;;;4.22;;
81036;SDS011;70521;47.468;19.306;2024-03-23T12:32:51;4.53;;;3.53;;
81036;SDS011;70521;47.468;19.306;2024-03-23T12:35:52;4.15;;;3.72;;
81036;SDS011;70521;47.468;19.306;2024-03-23T12:38:54;4.15;;;3.78;;
81036;SDS011;70521;47.468;19.306;2024-03-23T12:41:56;5.25;;;4.75;;
81036;SDS011;70521;47.468;19.306;2024-03-23T12:44:57;6.80;;;5.88;;
81036;SDS011;70521;47.468;19.306;2024-03-23T12:47:58;5.18;;;4.68;;
81036;SDS011;70521;47.468;19.306;2024-03-23T12:50:59;5.22;;;4.72;;
81036;SDS011;70521;47.468;19.306;2024-03-23T12:54:00;5.82;;;5.13;;
81036;SDS011;70521;47.468;19.306;2024-03-23T12:57:01;4.72;;;4.30;;
81036;SDS011;70521;47.468;19.306;2024-03-23T13:00:02;5.82;;;5.22;;
81036;SDS011;70521;47.468;19.306;2024-03-23T13:03:05;4.60;;;4.20;;
81036;SDS011;70521;47.468;19.306;2024-03-23T13:06:06;6.32;;;5.82;;
81036;SDS011;70521;47.468;19.306;2024-03-23T13:09:08;5.38;;;4.88;;
81036;SDS011;70521;47.468;19.306;2024-03-23T13:12:09;6.07;;;5.57;;
81036;SDS011;70521;47.468;19.306;2024-03-23T13:15:10;5.85;;;4.88;;
81036;SDS011;70521;47.468;19.306;2024-03-23T13:18:12;5.90;;;5.38;;
81036;SDS011;70521;47.468;19.306;2024-03-23T13:21:12;5.40;;;4.97;;
81036;SDS011;70521;47.468;19.306;2024-03-23T13:24:13;6.80;;;5.20;;
81036;SDS011;70521;47.468;19.306;2024-03-23T13:27:14;6.15;;;5.50;;
81036;SDS011;70521;47.468;19.306;2024-03-23T13:30:15;5.85;;;5.35;;
81036;SDS011;70521;47.468;19.306;2024-03-23T13:33:16;5.70;;;5.20;;
81036;SDS011;70521;47.468;19.306;2024-03-23T13:36:17;6.40;;;5.80;;
81036;SDS011;70521;47.468;19.306;2024-03-23T13:39:18;5.93;;;5.50;;
81036;SDS011;70521;47.468;19.306;2024-03-23T13:42:19;6.53;;;5.40;;
81036;SDS011;70521;47.468;19.306;2024-03-23T13:45:20;6.40;;;5.80;;
81036;SDS011;70521;47.468;19.306;2024-03-23T13:48:21;6.07;;;5.57;;
81036;SDS011;70521;47.468;19.306;2024-03-23T13:51:23;5.72;;;5.15;;
81036;SDS011;70521;47.468;19.306;2024-03-23T13:54:26;6.35;;;5.60;;
81036;SDS011;70521;47.468;19.306;2024-03-23T13:57:27;5.35;;;4.82;;
81036;SDS011;70521;47.468;19.306;2024-03-23T14:00:28;6.57;;;5.57;;
81036;SDS011;70521;47.468;19.306;2024-03-23T14:03:29;7.20;;;5.68;;
81036;SDS011;70521;47.468;19.306;2024-03-23T14:06:30;5.53;;;4.93;;
81036;SDS011;70521;47.468;19.306;2024-03-23T14:09:31;6.28;;;5.68;;
81036;SDS011;70521;47.468;19.306;2024-03-23T14:12:33;6.20;;;5.63;;
81036;SDS011;70521;47.468;19.306;2024-03-23T14:15:34;5.18;;;4.68;;
81036;SDS011;70521;47.468;19.306;2024-03-23T14:18:37;5.60;;;5.10;;
81036;SDS011;70521;47.468;19.306;2024-03-23T14:21:38;6.65;;;5.95;;
81036;SDS011;70521;47.468;19.306;2024-03-23T14:24:39;7.13;;;6.43;;
81036;SDS011;70521;47.468;19.306;2024-03-23T14:27:40;5.82;;;5.20;;
81036;SDS011;70521;47.468;19.306;2024-03-23T14:30:41;6.50;;;5.95;;
81036;SDS011;70521;47.468;19.306;2024-03-23T14:33:42;6.18;;;5.68;;
81036;SDS011;70521;47.468;19.306;2024-03-23T14:36:49;5.88;;;5.38;;
81036;SDS011;70521;47.468;19.306;2024-03-23T14:39:50;5.70;;;5.20;;
81036;SDS011;70521;47.468;19.306;2024-03-23T14:42:51;5.20;;;4.68;;
81036;SDS011;70521;47.468;19.306;2024-03-23T14:49:14;7.05;;;5.68;;
81036;SDS011;70521;47.468;19.306;2024-03-23T14:52:17;8.90;;;5.55;;
81036;SDS011;70521;47.468;19.306;2024-03-23T14:55:19;6.65;;;6.03;;
81036;SDS011;70521;47.468;19.306;2024-03-23T14:58:20;5.78;;;5.18;;
81036;SDS011;70521;47.468;19.306;2024-03-23T15:01:21;5.80;;;5.30;;
81036;SDS011;70521;47.468;19.306;2024-03-23T15:04:22;6.50;;;5.07;;
81036;SDS011;70521;47.468;19.306;2024-03-23T15:07:22;7.15;;;6.13;;
81036;SDS011;70521;47.468;19.306;2024-03-23T15:10:23;5.30;;;4.50;;
81036;SDS011;70521;47.468;19.306;2024-03-23T15:13:24;5.22;;;4.82;;
81036;SDS011;70521;47.468;19.306;2024-03-23T15:16:25;6.22;;;5.30;;
81036;SDS011;70521;47.468;19.306;2024-03-23T15:19:27;5.82;;;4.43;;
81036;SDS011;70521;47.468;19.306;2024-03-23T15:22:28;5.55;;;5.15;;
81036;SDS011;70521;47.468;19.306;2024-03-23T15:25:29;5.20;;;4.70;;
81036;SDS011;70521;47.468;19.306;2024-03-23T15:28:30;3.67;;;3.40;;
81036;SDS011;70521;47.468;19.306;2024-03-23T15:31:49;4.20;;;3.75;;
81036;SDS011;70521;47.468;19.306;2024-03-23T15:34:53;4.25;;;3.90;;
81036;SDS011;70521;47.468;19.306;2024-03-23T15:37:54;4.45;;;4.05;;
81036;SDS011;70521;47.468;19.306;2024-03-23T15:40:55;4.35;;;3.67;;
81036;SDS011;70521;47.468;19.306;2024-03-23T15:43:56;4.65;;;4.25;;
81036;SDS011;70521;47.468;19.306;2024-03-23T15:46:57;5.63;;;5.18;;
81036;SDS011;70521;47.468;19.306;2024-03-23T15:49:58;6.80;;;5.40;;
81036;SDS011;70521;47.468;19.306;2024-03-23T15:52:59;4.00;;;3.70;;
81036;SDS011;70521;47.468;19.306;2024-03-23T15:56:00;5.05;;;4.65;;
81036;SDS011;70521;47.468;19.306;2024-03-23T15:59:01;4.15;;;3.83;;
81036;SDS011;70521;47.468;19.306;2024-03-23T16:02:08;4.03;;;3.72;;
81036;SDS011;70521;47.468;19.306;2024-03-23T16:05:09;4.22;;;3.92;;
81036;SDS011;70521;47.468;19.306;2024-03-23T16:08:12;5.30;;;4.38;;
81036;SDS011;70521;47.468;19.306;2024-03-23T16:11:13;5.32;;;4.93;;
81036;SDS011;70521;47.468;19.306;2024-03-23T16:14:14;5.07;;;4.57;;
81036;SDS011;70521;47.468;19.306;2024-03-23T16:17:15;6.28;;;4.68;;
81036;SDS011;70521;47.468;19.306;2024-03-23T16:20:16;5.65;;;5.22;;
81036;SDS011;70521;47.468;19.306;2024-03-23T16:23:17;8.25;;;5.80;;
81036;SDS011;70521;47.468;19.306;2024-03-23T16:26:18;6.43;;;5.85;;
81036;SDS011;70521;47.468;19.306;2024-03-23T16:29:19;5.25;;;4.85;;
81036;SDS011;70521;47.468;19.306;2024-03-23T16:32:20;12.50;;;11.50;;
81036;SDS011;70521;47.468;19.306;2024-03-23T16:35:21;5.93;;;5.38;;
81036;SDS011;70521;47.468;19.306;2024-03-23T16:38:22;6.18;;;5.57;;
81036;SDS011;70521;47.468;19.306;2024-03-23T16:41:23;7.53;;;5.85;;
81036;SDS011;70521;47.468;19.306;2024-03-23T16:44:24;6.05;;;5.55;;
81036;SDS011;70521;47.468;19.306;2024-03-23T16:47:25;6.72;;;6.07;;
81036;SDS011;70521;47.468;19.306;2024-03-23T16:50:26;6.90;;;6.30;;
81036;SDS011;70521;47.468;19.306;2024-03-23T16:53:27;6.43;;;5.28;;
81036;SDS011;70521;47.468;19.306;2024-03-23T16:56:30;5.85;;;5.35;;
81036;SDS011;70521;47.468;19.306;2024-03-23T16:59:31;5.50;;;4.90;;
81036;SDS011;70521;47.468;19.306;2024-03-23T17:02:32;6.43;;;5.93;;
81036;SDS011;70521;47.468;19.306;2024-03-23T17:05:37;6.80;;;5.28;;
81036;SDS011;70521;47.468;19.306;2024-03-23T17:08:38;6.65;;;6.05;;
81036;SDS011;70521;47.468;19.306;2024-03-23T17:11:39;8.70;;;7.97;;
81036;SDS011;70521;47.468;19.306;2024-03-23T17:14:40;6.90;;;6.15;;
81036;SDS011;70521;47.468;19.306;2024-03-23T17:17:41;10.60;;;9.50;;
81036;SDS011;70521;47.468;19.306;2024-03-23T17:20:42;7.72;;;7.07;;
81036;SDS011;70521;47.468;19.306;2024-03-23T17:23:43;8.68;;;6.72;;
81036;SDS011;70521;47.468;19.306;2024-03-23T17:26:44;7.82;;;7.03;;
81036;SDS011;70521;47.468;19.306;2024-03-23T17:29:45;5.25;;;4.57;;
81036;SDS011;70521;47.468;19.306;2024-03-23T17:32:46;5.07;;;3.88;;
81036;SDS011;70521;47.468;19.306;2024-03-23T17:35:47;4.03;;;3.83;;
81036;SDS011;70521;47.468;19.306;2024-03-23T17:38:48;4.13;;;3.83;;
81036;SDS011;70521;47.468;19.306;2024-03-23T17:41:49;2.97;;;2.70;;
81036;SDS011;70521;47.468;19.306;2024-03-23T17:44:53;3.60;;;3.28;;
81036;SDS011;70521;47.468;19.306;2024-03-23T17:47:54;3.30;;;3.10;;
81036;SDS011;70521;47.468;19.306;2024-03-23T17:51:03;3.15;;;2.78;;
81036;SDS011;70521;47.468;19.306;2024-03-23T17:54:04;3.83;;;3.53;;
81036;SDS011;70521;47.468;19.306;2024-03-23T17:57:05;4.43;;;4.22;;
81036;SDS011;70521;47.468;19.306;2024-03-23T18:00:06;2.10;;;2.00;;
81036;SDS011;70521;47.468;19.306;2024-03-23T18:03:14;4.43;;;4.03;;
81036;SDS011;70521;47.468;19.306;2024-03-23T18:06:15;4.10;;;2.78;;
81036;SDS011;70521;47.468;19.306;2024-03-23T18:09:16;7.05;;;6.68;;
81036;SDS011;70521;47.468;19.306;2024-03-23T18:12:17;3.03;;;2.72;;
81036;SDS011;70521;47.468;19.306;2024-03-23T18:15:20;8.20;;;7.70;;
81036;SDS011;70521;47.468;19.306;2024-03-23T18:18:21;4.10;;;3.78;;
81036;SDS011;70521;47.468;19.306;2024-03-23T18:21:21;3.08;;;2.80;;
81036;SDS011;70521;47.468;19.306;2024-03-23T18:24:22;3.30;;;3.03;;
81036;SDS011;70521;47.468;19.306;2024-03-23T18:27:23;3.38;;;2.85;;
81036;SDS011;70521;47.468;19.306;2024-03-23T18:30:24;4.07;;;3.88;;
81036;SDS011;70521;47.468;19.306;2024-03-23T18:33:26;4.80;;;4.47;;
81036;SDS011;70521;47.468;19.306;2024-03-23T18:36:27;3.65;;;3.42;;
81036;SDS011;70521;47.468;19.306;2024-03-23T18:39:28;3.72;;;3.53;;
81036;SDS011;70521;47.468;19.306;2024-03-23T18:42:32;3.40;;;3.20;;
81036;SDS011;70521;47.468;19.306;2024-03-23T18:45:32;4.80;;;4.60;;
81036;SDS011;70521;47.468;19.306;2024-03-23T18:48:34;3.72;;;3.47;;
81036;SDS011;70521;47.468;19.306;2024-03-23T18:51:36;3.55;;;3.35;;